Leupp, Arizona
Current Conditions -  °F | °C
As of 5:04 AM on Sunday 21 Dec 2014 (Local Time) from KINW Reporting Station
Moderate Fog Moderate Fog  
Wind Chill: 27°   Ceiling: 200
Heat Index: 27°   Visibility: 0.5mi
Dew Point: 26°   Wind: 3mph
Humidity: 96%   Direction: 200°SSW
Pressure: 30.14"   Gusts: NA
Location:  35.3°N, 111°W
Report Text: KINW 211204Z AUTO 20003KT 1/2SM FZFG VV002 M03/M03 A3014 RMK AO2 T10281033
Loading
Personal Weather Stations






























Interactive Weather Map New forecast layout! Learn more

10-Day Weather Forecast

Advertisements
Track Severe Weather on mobile